createdAt,value
2023-03-01T00:01:30.923Z,23.80
2023-03-01T00:06:33.829Z,17.80
2023-03-01T00:11:36.740Z,25.40
2023-03-01T00:16:44.915Z,24.10
2023-03-01T00:21:47.666Z,20.10
2023-03-01T00:26:54.143Z,20.50
2023-03-01T00:31:56.918Z,24.80
2023-03-01T00:37:06.731Z,23.50
2023-03-01T00:42:09.455Z,19.80
2023-03-01T00:47:12.227Z,25.20
2023-03-01T00:52:15.154Z,16.70
2023-03-01T00:57:17.935Z,13.60
2023-03-01T01:02:21.386Z,16.70
2023-03-01T01:07:24.213Z,17.40
2023-03-01T01:12:27.157Z,21.80
2023-03-01T01:17:30.275Z,21.60
2023-03-01T01:22:33.069Z,24.40
2023-03-01T01:27:36.466Z,27.60
2023-03-01T01:32:40.178Z,20.90
2023-03-01T01:37:42.877Z,22.00
2023-03-01T01:42:45.703Z,21.10
2023-03-01T01:47:49.738Z,19.70
2023-03-01T01:52:54.388Z,18.50
2023-03-01T01:58:05.476Z,22.70
2023-03-01T02:03:12.810Z,23.10
2023-03-01T02:08:19.654Z,22.60
2023-03-01T02:13:22.582Z,24.40
2023-03-01T02:18:26.563Z,22.10
2023-03-01T02:23:30.375Z,15.50
2023-03-01T02:28:36.223Z,18.50
2023-03-01T02:33:40.591Z,22.20
2023-03-01T02:38:43.576Z,27.20
2023-03-01T02:43:47.229Z,20.60
2023-03-01T02:48:55.975Z,19.20
2023-03-01T02:54:21.157Z,27.40
2023-03-01T02:59:28.346Z,27.90
2023-03-01T03:04:31.036Z,11.50
2023-03-01T03:09:33.740Z,21.50
2023-03-01T03:14:36.558Z,22.10
2023-03-01T03:19:39.296Z,20.30
2023-03-01T03:24:42.266Z,18.10
2023-03-01T03:29:45.066Z,21.30
2023-03-01T03:34:47.861Z,20.50
2023-03-01T03:39:50.552Z,22.10
2023-03-01T03:44:53.701Z,17.80
2023-03-01T03:49:56.409Z,29.30
2023-03-01T03:54:59.170Z,26.70
2023-03-01T04:00:02.197Z,17.20
2023-03-01T04:05:05.909Z,31.80
2023-03-01T04:10:13.320Z,26.80
2023-03-01T04:15:16.107Z,23.50
2023-03-01T04:20:27.778Z,25.10
2023-03-01T04:25:30.623Z,23.40
2023-03-01T04:30:37.068Z,26.20
2023-03-01T04:35:41.440Z,25.10
2023-03-01T04:40:44.750Z,23.50
2023-03-01T04:45:47.661Z,40.50
2023-03-01T04:50:50.865Z,38.50
2023-03-01T04:55:56.751Z,36.80
2023-03-01T05:00:59.696Z,30.80
2023-03-01T05:06:02.408Z,26.10
2023-03-01T05:11:06.429Z,21.90
2023-03-01T05:16:13.799Z,12.10
2023-03-01T05:21:19.870Z,22.00
2023-03-01T05:26:28.181Z,22.00
2023-03-01T05:31:32.057Z,26.50
2023-03-01T05:36:35.752Z,28.30
2023-03-01T05:41:38.454Z,32.70
2023-03-01T05:46:41.253Z,37.20
2023-03-01T05:51:49.192Z,35.10
2023-03-01T05:56:51.855Z,27.60
2023-03-01T06:01:54.699Z,24.40
2023-03-01T06:06:57.630Z,27.10
2023-03-01T06:12:01.013Z,23.80
2023-03-01T06:17:03.775Z,25.30
2023-03-01T06:22:06.525Z,28.20
2023-03-01T06:27:09.414Z,26.50
2023-03-01T06:32:12.186Z,29.80
2023-03-01T06:37:15.217Z,34.50
2023-03-01T06:42:17.968Z,25.40
2023-03-01T06:47:21.287Z,32.10
2023-03-01T06:52:24.085Z,36.70
2023-03-01T06:57:27.222Z,40.70
2023-03-01T07:02:29.987Z,35.00
2023-03-01T07:07:33.276Z,36.20
2023-03-01T07:12:36.220Z,29.50
2023-03-01T07:17:39.282Z,26.00
2023-03-01T07:22:43.304Z,22.50
2023-03-01T07:27:51.320Z,24.10
2023-03-01T07:32:55.798Z,26.60
2023-03-01T07:37:58.771Z,32.30
2023-03-01T07:43:02.405Z,27.60
2023-03-01T07:48:05.458Z,33.00
2023-03-01T07:53:09.010Z,26.10
2023-03-01T07:58:11.912Z,27.10
2023-03-01T08:03:14.727Z,27.50
2023-03-01T08:08:18.650Z,25.60
2023-03-01T08:13:23.523Z,26.80
2023-03-01T08:18:26.396Z,21.80
2023-03-01T08:23:29.174Z,26.10
2023-03-01T08:28:32.083Z,22.50
2023-03-01T08:33:34.793Z,24.00
2023-03-01T08:38:37.714Z,24.30
2023-03-01T08:43:40.393Z,20.30
2023-03-01T08:48:44.388Z,21.20
2023-03-01T08:53:47.994Z,22.10
2023-03-01T08:58:50.861Z,19.50
2023-03-01T09:03:53.841Z,17.30
2023-03-01T09:08:56.548Z,18.00
2023-03-01T09:13:59.263Z,17.90
2023-03-01T09:19:02.065Z,19.70
2023-03-01T09:24:05.079Z,21.20
2023-03-01T09:29:07.874Z,16.30
2023-03-01T09:34:11.366Z,18.50
2023-03-01T09:39:14.145Z,18.10
2023-03-01T09:44:24.582Z,16.20
2023-03-01T09:49:31.616Z,14.00
2023-03-01T09:54:35.398Z,15.10
2023-03-01T09:59:53.461Z,21.30
2023-03-01T10:05:06.527Z,21.10
2023-03-01T10:10:27.157Z,17.10
2023-03-01T10:15:40.994Z,14.30
2023-03-01T10:20:54.156Z,14.90
2023-03-01T10:26:02.911Z,11.30
2023-03-01T10:31:08.860Z,12.30
2023-03-01T10:41:14.772Z,12.30
2023-03-01T10:46:26.908Z,13.80
2023-03-01T10:51:30.236Z,17.20
2023-03-01T10:56:48.447Z,14.20
2023-03-01T11:02:25.507Z,11.40
2023-03-01T11:07:29.598Z,13.40
2023-03-01T11:12:33.841Z,9.80
2023-03-01T11:17:53.572Z,12.10
2023-03-01T11:23:07.710Z,11.50
2023-03-01T11:28:22.684Z,13.30
2023-03-01T11:33:38.258Z,12.60
2023-03-01T11:38:41.382Z,11.40
2023-03-01T11:44:02.554Z,12.60
2023-03-01T11:49:39.332Z,10.20
2023-03-01T11:54:47.965Z,10.70
2023-03-01T12:00:09.959Z,13.20
2023-03-01T12:05:37.703Z,7.90
2023-03-01T12:10:58.063Z,6.50
2023-03-01T12:16:36.303Z,7.00
2023-03-01T12:22:17.356Z,7.30
2023-03-01T12:27:51.240Z,6.80
2023-03-01T12:32:56.683Z,6.10
2023-03-01T12:38:08.077Z,7.10
2023-03-01T12:43:29.804Z,5.70
2023-03-01T12:48:44.476Z,6.60
2023-03-01T12:53:54.212Z,6.10
2023-03-01T12:59:18.349Z,7.90
2023-03-01T13:04:24.050Z,6.40
2023-03-01T13:09:43.184Z,5.70
2023-03-01T13:14:47.356Z,6.50
2023-03-01T13:19:59.969Z,6.60
2023-03-01T13:25:14.865Z,9.50
2023-03-01T13:30:36.176Z,8.00
2023-03-01T13:35:44.951Z,8.20
2023-03-01T13:40:50.899Z,8.30
2023-03-01T13:45:53.658Z,8.10
2023-03-01T13:51:12.187Z,7.90
2023-03-01T13:56:22.757Z,10.40
2023-03-01T14:01:32.265Z,8.20
2023-03-01T14:06:37.160Z,9.60
2023-03-01T14:11:40.429Z,10.50
2023-03-01T14:16:54.746Z,8.30
2023-03-01T14:22:17.893Z,9.80
2023-03-01T14:27:21.664Z,8.70
2023-03-01T14:32:30.281Z,8.60
2023-03-01T14:37:35.540Z,10.10
2023-03-01T14:42:38.512Z,8.20
2023-03-01T14:47:43.479Z,11.00
2023-03-01T14:52:49.791Z,8.80
2023-03-01T14:57:53.113Z,9.80
2023-03-01T15:02:59.635Z,10.50
2023-03-01T15:08:05.089Z,11.60
2023-03-01T15:13:35.484Z,14.10
2023-03-01T15:18:39.276Z,14.30
2023-03-01T15:23:42.807Z,16.00
2023-03-01T15:28:52.306Z,12.90
2023-03-01T15:34:10.775Z,12.60
2023-03-01T15:39:38.589Z,13.20
2023-03-01T15:44:48.853Z,13.00
2023-03-01T15:49:55.835Z,10.60
2023-03-01T15:55:06.648Z,14.80
2023-03-01T16:00:14.969Z,13.90
2023-03-01T16:05:20.942Z,25.90
2023-03-01T16:10:24.983Z,19.80
2023-03-01T16:15:33.313Z,15.60
2023-03-01T16:20:36.174Z,16.40
2023-03-01T16:25:39.032Z,18.60
2023-03-01T16:30:48.105Z,13.90
2023-03-01T16:35:51.767Z,18.60
2023-03-01T16:40:55.101Z,18.20
2023-03-01T16:46:00.261Z,19.10
2023-03-01T16:51:04.078Z,29.70
2023-03-01T16:56:09.450Z,34.90
2023-03-01T17:01:16.949Z,35.80
2023-03-01T17:06:23.118Z,32.00
2023-03-01T17:11:26.539Z,30.40
2023-03-01T17:16:29.336Z,29.10
2023-03-01T17:21:32.700Z,28.60
2023-03-01T17:26:35.760Z,27.90
2023-03-01T17:31:39.104Z,27.80
2023-03-01T17:36:44.759Z,29.40
2023-03-01T17:41:47.562Z,25.80
2023-03-01T17:46:50.681Z,25.70
2023-03-01T17:51:53.532Z,24.30
2023-03-01T17:56:56.596Z,29.10
2023-03-01T18:02:01.730Z,30.50
2023-03-01T18:07:04.841Z,29.20
2023-03-01T18:12:07.648Z,32.90
2023-03-01T18:17:12.307Z,27.60
2023-03-01T18:22:15.500Z,37.40
2023-03-01T18:27:18.490Z,43.80
2023-03-01T18:32:22.185Z,41.90
2023-03-01T18:37:25.147Z,38.80
2023-03-01T18:42:28.140Z,46.30
2023-03-01T18:47:31.663Z,40.70
2023-03-01T18:52:34.423Z,42.30
2023-03-01T18:57:37.150Z,40.70
2023-03-01T19:02:39.936Z,44.80
2023-03-01T19:07:42.929Z,33.40
2023-03-01T19:12:45.899Z,33.70
2023-03-01T19:17:49.082Z,44.20
2023-03-01T19:22:52.175Z,47.70
2023-03-01T19:27:54.950Z,46.40
2023-03-01T19:32:57.773Z,43.30
2023-03-01T19:38:00.489Z,43.50
2023-03-01T19:43:03.225Z,40.80
2023-03-01T19:48:06.450Z,38.80
2023-03-01T19:53:09.696Z,43.70
2023-03-01T19:58:12.893Z,37.80
2023-03-01T20:03:15.746Z,41.80
2023-03-01T20:08:18.592Z,44.60
2023-03-01T20:13:21.366Z,37.80
2023-03-01T20:18:24.757Z,40.10
2023-03-01T20:23:28.756Z,41.90
2023-03-01T20:28:31.676Z,44.50
2023-03-01T20:33:34.996Z,34.60
2023-03-01T20:38:39.179Z,53.80
2023-03-01T20:43:42.554Z,51.00
2023-03-01T20:48:45.300Z,64.00
2023-03-01T20:53:47.966Z,50.60
2023-03-01T20:58:51.357Z,50.80
2023-03-01T21:03:54.208Z,51.10
2023-03-01T21:08:57.916Z,40.00
2023-03-01T21:14:00.959Z,35.70
2023-03-01T21:19:07.493Z,31.50
2023-03-01T21:24:12.539Z,31.70
2023-03-01T21:29:15.422Z,37.10
2023-03-01T21:34:18.133Z,35.90
2023-03-01T21:39:22.272Z,48.60
2023-03-01T21:44:27.701Z,44.90
2023-03-01T21:49:30.435Z,32.80
2023-03-01T21:54:34.176Z,39.60
2023-03-01T21:59:38.615Z,33.40
2023-03-01T22:04:41.417Z,50.00
2023-03-01T22:09:44.516Z,47.20
2023-03-01T22:14:47.317Z,59.60
2023-03-01T22:19:50.113Z,50.90
2023-03-01T22:24:52.853Z,62.90
2023-03-01T22:29:56.105Z,48.70
2023-03-01T22:34:58.877Z,42.70
2023-03-01T22:40:01.901Z,29.40
2023-03-01T22:45:05.765Z,28.00
2023-03-01T22:50:13.003Z,22.30
2023-03-01T22:55:15.752Z,22.70
2023-03-01T23:00:19.733Z,14.70
2023-03-01T23:05:22.599Z,15.40
2023-03-01T23:10:26.112Z,13.40
2023-03-01T23:15:29.171Z,9.40
2023-03-01T23:20:36.262Z,5.10
2023-03-01T23:25:39.039Z,3.90
2023-03-01T23:30:41.882Z,5.00
2023-03-01T23:35:44.740Z,3.30
2023-03-01T23:40:48.234Z,3.40
2023-03-01T23:45:54.012Z,5.20
2023-03-01T23:50:56.847Z,3.20
2023-03-01T23:56:00.745Z,4.00
